Terminal Aerodrome Forecast
Issued by NWS Brownsville, TX

Current Version | Previous Version | Text Only | Print | Product List | Glossary Off
Versions: 1 2 3 4 5 6 7 8 9 10 11 12 13 14 15 16

000
FTUS44 KBRO 221100
TAFMFE
TAF
KMFE 221120Z 2212/2312 15010KT P6SM OVC010
     FM221400 15010G16KT P6SM FEW025
     FM221800 16015G20KT P6SM FEW040
     FM222300 14015KT P6SM SKC
     FM230600 15006KT P6SM SKC=

USA.gov is the U.S. government's official web portal to all federal, state and local government web resources and services.